createdAt,value
2023-01-27T00:01:16.944Z,8.75
2023-01-27T00:03:43.912Z,9.35
2023-01-27T00:06:13.275Z,9.80
2023-01-27T00:08:40.248Z,10.45
2023-01-27T00:11:39.428Z,15.57
2023-01-27T00:14:06.362Z,7.82
2023-01-27T00:16:33.156Z,11.32
2023-01-27T00:18:59.925Z,9.93
2023-01-27T00:21:45.187Z,11.13
2023-01-27T00:27:00.419Z,10.48
2023-01-27T00:29:27.671Z,9.88
2023-01-27T00:32:12.991Z,11.68
2023-01-27T00:37:08.588Z,7.30
2023-01-27T00:39:35.585Z,7.82
2023-01-27T00:42:02.443Z,10.05
2023-01-27T00:44:29.267Z,11.13
2023-01-27T00:46:56.050Z,12.65
2023-01-27T00:49:22.994Z,10.27
2023-01-27T00:51:50.006Z,9.75
2023-01-27T00:54:17.679Z,9.57
2023-01-27T00:56:45.173Z,8.20
2023-01-27T00:59:12.004Z,10.18
2023-01-27T01:01:39.812Z,14.20
2023-01-27T01:04:06.900Z,10.02
2023-01-27T01:06:33.799Z,12.25
2023-01-27T01:09:00.590Z,8.80
2023-01-27T01:11:27.693Z,10.35
2023-01-27T01:13:56.416Z,9.20
2023-01-27T01:16:25.695Z,8.07
2023-01-27T01:18:52.667Z,9.05
2023-01-27T01:21:19.643Z,9.65
2023-01-27T01:23:46.798Z,10.68
2023-01-27T01:26:16.334Z,12.82
2023-01-27T01:28:45.802Z,6.32
2023-01-27T01:31:18.062Z,7.28
2023-01-27T01:33:45.775Z,11.75
2023-01-27T01:36:20.360Z,10.25
2023-01-27T01:38:48.027Z,27.38
2023-01-27T01:41:21.526Z,6.72
2023-01-27T01:43:49.994Z,6.35
2023-01-27T01:46:18.122Z,6.22
2023-01-27T01:48:56.605Z,8.35
2023-01-27T01:51:41.694Z,8.70
2023-01-27T01:54:22.385Z,8.75
2023-01-27T01:57:23.086Z,9.52
2023-01-27T02:00:03.796Z,8.60
2023-01-27T02:02:31.716Z,8.93
2023-01-27T02:05:06.376Z,9.50
2023-01-27T02:07:59.308Z,10.40
2023-01-27T02:10:26.220Z,10.13
2023-01-27T02:12:53.071Z,9.73
2023-01-27T02:15:21.643Z,11.35
2023-01-27T02:17:49.165Z,10.43
2023-01-27T02:20:22.398Z,10.63
2023-01-27T02:23:27.204Z,15.40
2023-01-27T02:26:21.300Z,10.82
2023-01-27T02:28:59.087Z,11.70
2023-01-27T02:31:26.211Z,15.80
2023-01-27T02:33:59.297Z,9.25
2023-01-27T02:36:28.292Z,12.55
2023-01-27T02:38:57.014Z,9.90
2023-01-27T02:41:37.097Z,9.77
2023-01-27T02:44:04.368Z,11.98
2023-01-27T02:46:31.533Z,9.23
2023-01-27T02:48:59.046Z,11.52
2023-01-27T02:51:26.036Z,9.00
2023-01-27T02:53:52.980Z,10.27
2023-01-27T02:56:19.840Z,10.27
2023-01-27T02:58:46.733Z,12.02
2023-01-27T03:01:13.991Z,12.18
2023-01-27T03:03:58.713Z,14.95
2023-01-27T03:06:26.068Z,13.27
2023-01-27T03:08:52.870Z,8.60
2023-01-27T03:11:39.710Z,16.23
2023-01-27T03:14:08.924Z,14.18
2023-01-27T03:16:54.885Z,14.32
2023-01-27T03:19:22.126Z,10.77
2023-01-27T03:21:51.391Z,11.68
2023-01-27T03:24:19.138Z,13.75
2023-01-27T03:26:46.645Z,15.07
2023-01-27T03:29:31.973Z,13.18
2023-01-27T03:31:59.049Z,12.00
2023-01-27T03:34:26.262Z,14.90
2023-01-27T03:37:11.797Z,11.18
2023-01-27T03:39:57.602Z,10.60
2023-01-27T03:42:42.910Z,14.18
2023-01-27T03:45:29.129Z,16.15
2023-01-27T03:47:55.893Z,12.98
2023-01-27T03:50:37.971Z,15.70
2023-01-27T03:53:06.072Z,14.55
2023-01-27T03:55:35.340Z,14.68
2023-01-27T03:58:19.819Z,15.48
2023-01-27T04:00:57.180Z,17.95
2023-01-27T04:03:45.462Z,13.30
2023-01-27T04:06:34.670Z,18.27
2023-01-27T04:09:02.120Z,16.08
2023-01-27T04:11:48.817Z,14.27
2023-01-27T04:14:17.093Z,17.55
2023-01-27T04:16:44.274Z,13.95
2023-01-27T04:19:12.184Z,15.40
2023-01-27T04:21:39.876Z,19.83
2023-01-27T04:24:17.581Z,15.90
2023-01-27T04:26:45.951Z,18.70
2023-01-27T04:29:14.206Z,15.75
2023-01-27T04:31:41.519Z,18.95
2023-01-27T04:34:10.402Z,16.17
2023-01-27T04:36:37.212Z,16.58
2023-01-27T04:39:04.084Z,17.83
2023-01-27T04:41:30.941Z,19.27
2023-01-27T04:44:01.662Z,19.65
2023-01-27T04:46:28.425Z,20.50
2023-01-27T04:48:55.236Z,23.85
2023-01-27T04:51:22.389Z,17.63
2023-01-27T04:53:49.385Z,23.23
2023-01-27T04:56:29.182Z,19.60
2023-01-27T04:59:00.160Z,18.27
2023-01-27T05:01:27.711Z,20.45
2023-01-27T05:03:55.237Z,23.95
2023-01-27T05:06:22.923Z,24.20
2023-01-27T05:08:50.065Z,22.02
2023-01-27T05:11:17.486Z,20.52
2023-01-27T05:13:45.327Z,19.92
2023-01-27T05:16:21.889Z,23.15
2023-01-27T05:18:50.848Z,22.92
2023-01-27T05:21:22.444Z,16.63
2023-01-27T05:23:50.004Z,21.80
2023-01-27T05:26:27.042Z,20.35
2023-01-27T05:28:57.243Z,20.17
2023-01-27T05:31:28.023Z,18.42
2023-01-27T05:33:56.807Z,23.55
2023-01-27T05:36:25.847Z,19.83
2023-01-27T05:38:54.917Z,27.02
2023-01-27T05:41:22.926Z,22.90
2023-01-27T05:43:55.841Z,25.15
2023-01-27T05:46:29.770Z,24.52
2023-01-27T05:49:00.838Z,22.13
2023-01-27T05:51:32.185Z,24.92
2023-01-27T05:53:59.515Z,25.77
2023-01-27T05:56:26.972Z,24.98
2023-01-27T05:58:55.523Z,25.50
2023-01-27T06:01:31.968Z,24.73
2023-01-27T06:03:59.202Z,24.23
2023-01-27T06:06:28.779Z,29.52
2023-01-27T06:08:55.593Z,23.30
2023-01-27T06:11:24.489Z,28.90
2023-01-27T06:13:52.875Z,26.58
2023-01-27T06:16:22.524Z,28.38
2023-01-27T06:18:50.020Z,32.10
2023-01-27T06:21:18.036Z,29.88
2023-01-27T06:23:44.964Z,27.20
2023-01-27T06:26:16.503Z,29.88
2023-01-27T06:28:44.544Z,35.13
2023-01-27T06:31:18.689Z,32.80
2023-01-27T06:33:45.792Z,25.52
2023-01-27T06:36:17.115Z,32.03
2023-01-27T06:38:45.065Z,31.30
2023-01-27T06:41:12.222Z,37.88
2023-01-27T06:43:39.196Z,34.08
2023-01-27T06:46:06.508Z,35.97
2023-01-27T06:48:33.770Z,40.03
2023-01-27T06:51:00.803Z,33.03
2023-01-27T06:53:27.663Z,37.33
2023-01-27T06:56:01.636Z,36.08
2023-01-27T06:58:29.768Z,25.52
2023-01-27T07:00:57.288Z,39.20
2023-01-27T07:03:25.023Z,34.10
2023-01-27T07:05:53.469Z,36.20
2023-01-27T07:08:20.616Z,33.25
2023-01-27T07:10:47.373Z,32.50
2023-01-27T07:13:15.386Z,37.50
2023-01-27T07:15:42.592Z,33.25
2023-01-27T07:18:12.326Z,34.15
2023-01-27T07:20:39.607Z,33.38
2023-01-27T07:23:06.495Z,35.30
2023-01-27T07:25:35.579Z,39.55
2023-01-27T07:28:03.419Z,39.13
2023-01-27T07:30:31.099Z,34.60
2023-01-27T07:33:10.199Z,37.92
2023-01-27T07:35:38.887Z,38.22
2023-01-27T07:38:07.054Z,32.42
2023-01-27T07:40:34.309Z,32.22
2023-01-27T07:43:02.275Z,35.22
2023-01-27T07:45:30.577Z,37.88
2023-01-27T07:48:03.184Z,36.22
2023-01-27T07:50:30.662Z,35.70
2023-01-27T07:53:02.872Z,36.65
2023-01-27T07:55:30.889Z,36.90
2023-01-27T07:57:58.547Z,37.80
2023-01-27T08:00:25.653Z,46.17
2023-01-27T08:02:54.471Z,37.53
2023-01-27T08:05:23.494Z,37.92
2023-01-27T08:07:52.397Z,42.33
2023-01-27T08:10:19.561Z,41.40
2023-01-27T08:12:47.185Z,42.33
2023-01-27T08:15:15.525Z,41.00
2023-01-27T08:17:43.881Z,41.20
2023-01-27T08:20:12.509Z,43.53
2023-01-27T08:22:39.568Z,44.22
2023-01-27T08:25:07.181Z,41.67
2023-01-27T08:27:33.961Z,40.25
2023-01-27T08:30:00.725Z,40.53
2023-01-27T08:32:27.657Z,39.42
2023-01-27T08:34:55.903Z,47.85
2023-01-27T08:37:22.691Z,42.53
2023-01-27T08:39:49.446Z,40.05
2023-01-27T08:42:18.036Z,40.50
2023-01-27T08:44:45.053Z,39.25
2023-01-27T08:47:11.843Z,41.38
2023-01-27T08:49:38.705Z,42.45
2023-01-27T08:52:05.597Z,37.22
2023-01-27T08:54:32.403Z,39.67
2023-01-27T08:56:59.182Z,38.13
2023-01-27T08:59:26.127Z,37.47
2023-01-27T09:01:52.978Z,38.28
2023-01-27T09:04:22.854Z,42.33
2023-01-27T09:06:50.521Z,53.22
2023-01-27T09:09:17.487Z,43.30
2023-01-27T09:11:45.734Z,49.10
2023-01-27T09:14:13.930Z,55.65
2023-01-27T09:16:40.809Z,43.17
2023-01-27T09:19:07.857Z,37.75
2023-01-27T09:21:34.639Z,37.08
2023-01-27T09:24:01.450Z,37.03
2023-01-27T09:26:28.310Z,40.88
2023-01-27T09:28:55.077Z,37.45
2023-01-27T09:31:22.021Z,36.63
2023-01-27T09:33:49.261Z,35.22
2023-01-27T09:36:21.528Z,36.88
2023-01-27T09:38:55.852Z,37.78
2023-01-27T09:41:37.694Z,35.88
2023-01-27T09:44:12.205Z,32.65
2023-01-27T09:47:46.492Z,34.65
2023-01-27T09:50:45.596Z,30.40
2023-01-27T09:53:51.794Z,30.88
2023-01-27T09:56:54.015Z,30.88
2023-01-27T09:59:57.367Z,26.98
2023-01-27T10:02:52.542Z,31.20
2023-01-27T10:05:47.478Z,26.15
2023-01-27T10:08:32.949Z,28.70
2023-01-27T10:11:26.218Z,28.35
2023-01-27T10:14:07.587Z,29.20
2023-01-27T10:16:41.699Z,28.60
2023-01-27T10:19:55.151Z,28.15
2023-01-27T10:22:45.350Z,27.77
2023-01-27T10:25:32.284Z,25.25
2023-01-27T10:28:11.932Z,26.17
2023-01-27T10:30:58.112Z,26.60
2023-01-27T10:33:48.490Z,22.15
2023-01-27T10:36:51.012Z,23.25
2023-01-27T10:40:01.317Z,24.52
2023-01-27T10:43:02.228Z,22.88
2023-01-27T10:45:45.821Z,20.45
2023-01-27T10:48:33.711Z,21.85
2023-01-27T10:51:24.496Z,18.48
2023-01-27T10:54:13.952Z,19.23
2023-01-27T10:56:57.520Z,19.58
2023-01-27T10:59:42.877Z,14.18
2023-01-27T11:02:09.638Z,14.65
2023-01-27T11:04:43.243Z,13.10
2023-01-27T11:07:17.964Z,16.33
2023-01-27T11:09:55.992Z,11.07
2023-01-27T11:12:35.679Z,15.63
2023-01-27T11:15:16.658Z,12.43
2023-01-27T11:18:17.927Z,15.30
2023-01-27T11:20:54.581Z,17.95
2023-01-27T11:23:27.959Z,22.75
2023-01-27T11:26:28.108Z,23.25
2023-01-27T11:29:20.431Z,19.92
2023-01-27T11:32:16.030Z,14.52
2023-01-27T11:37:24.375Z,15.55
2023-01-27T11:39:51.205Z,13.07
2023-01-27T11:42:18.621Z,17.40
2023-01-27T11:44:45.926Z,18.25
2023-01-27T11:47:35.069Z,23.67
2023-01-27T11:50:04.655Z,16.65
2023-01-27T11:52:32.150Z,21.98
2023-01-27T11:55:20.171Z,19.88
2023-01-27T11:57:58.124Z,24.05
2023-01-27T12:00:38.975Z,16.38
2023-01-27T12:04:04.819Z,24.10
2023-01-27T12:06:49.229Z,24.67
2023-01-27T12:09:41.193Z,22.42
2023-01-27T12:12:13.956Z,15.82
2023-01-27T12:14:56.347Z,20.77
2023-01-27T12:17:42.241Z,16.30
2023-01-27T12:20:43.519Z,19.42
2023-01-27T12:23:30.145Z,21.77
2023-01-27T12:26:02.492Z,22.88
2023-01-27T12:28:37.019Z,18.70
2023-01-27T12:31:31.203Z,19.02
2023-01-27T12:34:07.001Z,16.95
2023-01-27T12:36:41.463Z,17.90
2023-01-27T12:39:30.975Z,18.85
2023-01-27T12:41:58.500Z,19.45
2023-01-27T12:44:29.433Z,16.00
2023-01-27T12:47:25.126Z,13.57
2023-01-27T12:52:21.882Z,19.55
2023-01-27T12:54:51.366Z,9.18
2023-01-27T12:57:21.790Z,11.27
2023-01-27T12:59:56.665Z,11.93
2023-01-27T13:05:01.256Z,15.07
2023-01-27T13:07:45.515Z,12.40
2023-01-27T13:10:27.996Z,15.85
2023-01-27T13:12:58.723Z,12.13
2023-01-27T13:15:31.315Z,12.00
2023-01-27T13:18:00.313Z,10.27
2023-01-27T13:20:32.171Z,15.80
2023-01-27T13:23:16.187Z,10.38
2023-01-27T13:25:50.452Z,13.32
2023-01-27T13:28:42.779Z,13.40
2023-01-27T13:31:43.274Z,14.93
2023-01-27T13:34:36.411Z,9.40
2023-01-27T13:37:40.183Z,12.15
2023-01-27T13:40:30.029Z,10.20
2023-01-27T13:43:33.758Z,9.73
2023-01-27T13:46:32.087Z,11.05
2023-01-27T13:49:05.459Z,10.38
2023-01-27T13:51:33.636Z,7.93
2023-01-27T13:54:04.121Z,8.77
2023-01-27T13:57:29.353Z,8.95
2023-01-27T14:00:18.274Z,8.55
2023-01-27T14:03:00.386Z,6.68
2023-01-27T14:05:39.102Z,5.70
2023-01-27T14:08:45.542Z,5.22
2023-01-27T14:12:14.366Z,11.02
2023-01-27T14:15:46.874Z,7.95
2023-01-27T14:18:30.830Z,14.57
2023-01-27T14:21:41.428Z,6.95
2023-01-27T14:24:38.012Z,15.05
2023-01-27T14:27:29.079Z,6.97
2023-01-27T14:30:24.740Z,11.50
2023-01-27T14:35:50.129Z,7.38
2023-01-27T14:38:42.981Z,8.57
2023-01-27T14:41:34.558Z,7.50
2023-01-27T14:44:44.454Z,5.65
2023-01-27T14:47:53.945Z,5.70
2023-01-27T14:50:27.724Z,6.38
2023-01-27T14:53:45.696Z,7.40
2023-01-27T14:56:56.880Z,9.93
2023-01-27T15:00:10.928Z,4.80
2023-01-27T15:02:53.131Z,9.30
2023-01-27T15:05:29.716Z,8.55
2023-01-27T15:08:20.911Z,11.57
2023-01-27T15:11:06.175Z,7.10
2023-01-27T15:14:17.506Z,10.25
2023-01-27T15:17:32.194Z,13.35
2023-01-27T15:20:29.526Z,11.73
2023-01-27T15:23:45.872Z,8.45
2023-01-27T15:26:15.288Z,12.65
2023-01-27T15:28:43.574Z,8.75
2023-01-27T15:31:19.593Z,9.60
2023-01-27T15:34:04.809Z,8.68
2023-01-27T15:36:38.636Z,10.38
2023-01-27T15:39:11.559Z,8.85
2023-01-27T15:42:03.363Z,10.57
2023-01-27T15:45:01.340Z,13.32
2023-01-27T15:47:32.818Z,5.63
2023-01-27T15:50:18.206Z,7.38
2023-01-27T15:52:48.055Z,12.88
2023-01-27T15:55:30.755Z,10.45
2023-01-27T15:58:35.776Z,11.90
2023-01-27T16:01:08.470Z,7.00
2023-01-27T16:03:44.110Z,5.43
2023-01-27T16:06:23.775Z,9.52
2023-01-27T16:09:03.023Z,11.15
2023-01-27T16:11:29.718Z,8.48
2023-01-27T16:14:11.764Z,7.78
2023-01-27T16:16:51.624Z,10.00
2023-01-27T16:19:29.431Z,5.22
2023-01-27T16:22:01.553Z,3.30
2023-01-27T16:24:48.312Z,4.43
2023-01-27T16:27:34.067Z,8.18
2023-01-27T16:30:06.579Z,10.38
2023-01-27T16:32:41.191Z,5.75
2023-01-27T16:35:19.253Z,5.38
2023-01-27T16:38:21.738Z,5.15
2023-01-27T16:40:55.930Z,7.50
2023-01-27T16:43:40.754Z,5.72
2023-01-27T16:46:45.833Z,13.20
2023-01-27T16:49:21.584Z,7.78
2023-01-27T16:51:58.967Z,8.63
2023-01-27T16:54:33.804Z,12.52
2023-01-27T16:57:04.169Z,8.02
2023-01-27T16:59:37.760Z,11.18
2023-01-27T17:02:21.589Z,8.35
2023-01-27T17:04:53.107Z,6.03
2023-01-27T17:07:20.015Z,7.20
2023-01-27T17:09:53.871Z,9.80
2023-01-27T17:12:36.610Z,7.25
2023-01-27T17:15:37.199Z,7.30
2023-01-27T17:18:11.082Z,6.88
2023-01-27T17:20:41.981Z,7.63
2023-01-27T17:23:29.344Z,11.93
2023-01-27T17:25:56.533Z,30.33
2023-01-27T17:28:27.373Z,35.53
2023-01-27T17:31:07.448Z,45.05
2023-01-27T17:33:36.792Z,41.45
2023-01-27T17:36:10.913Z,44.42
2023-01-27T17:38:50.063Z,29.20
2023-01-27T17:41:37.979Z,29.77
2023-01-27T17:44:14.249Z,25.98
2023-01-27T17:46:41.898Z,28.05
2023-01-27T17:49:16.139Z,29.45
2023-01-27T17:51:51.447Z,13.00
2023-01-27T17:54:38.785Z,17.17
2023-01-27T17:57:32.757Z,13.32
2023-01-27T18:00:04.705Z,18.45
2023-01-27T18:02:36.223Z,17.23
2023-01-27T18:05:16.438Z,17.77
2023-01-27T18:07:43.425Z,14.75
2023-01-27T18:10:37.566Z,18.20
2023-01-27T18:13:19.489Z,18.90
2023-01-27T18:16:19.590Z,16.33
2023-01-27T18:18:47.686Z,31.35
2023-01-27T18:21:16.843Z,21.40
2023-01-27T18:23:56.951Z,17.52
2023-01-27T18:26:38.293Z,18.23
2023-01-27T18:29:22.923Z,21.88
2023-01-27T18:31:59.781Z,13.38
2023-01-27T18:34:31.294Z,33.33
2023-01-27T18:37:03.652Z,22.17
2023-01-27T18:39:39.988Z,28.60
2023-01-27T18:42:28.512Z,22.83
2023-01-27T18:44:56.889Z,21.42
2023-01-27T18:47:33.592Z,22.17
2023-01-27T18:50:25.155Z,21.60
2023-01-27T18:52:53.474Z,21.42
2023-01-27T18:55:23.642Z,17.80
2023-01-27T18:57:59.137Z,22.77
2023-01-27T19:00:37.762Z,18.02
2023-01-27T19:03:12.774Z,18.10
2023-01-27T19:08:09.290Z,18.90
2023-01-27T19:10:36.812Z,17.98
2023-01-27T19:13:04.481Z,27.85
2023-01-27T19:15:37.432Z,24.83
2023-01-27T19:18:26.146Z,18.30
2023-01-27T19:20:53.489Z,23.10
2023-01-27T19:23:21.522Z,24.75
2023-01-27T19:25:54.059Z,22.33
2023-01-27T19:28:38.528Z,25.55
2023-01-27T19:31:07.592Z,25.67
2023-01-27T19:33:37.308Z,29.67
2023-01-27T19:36:26.702Z,28.13
2023-01-27T19:39:02.237Z,23.60
2023-01-27T19:41:29.200Z,25.88
2023-01-27T19:43:56.475Z,25.23
2023-01-27T19:46:23.686Z,20.70
2023-01-27T19:48:50.854Z,16.58
2023-01-27T19:51:19.010Z,15.57
2023-01-27T19:53:46.444Z,14.57
2023-01-27T19:56:17.386Z,13.38
2023-01-27T19:58:51.956Z,15.73
2023-01-27T20:01:21.541Z,13.75
2023-01-27T20:03:49.700Z,21.35
2023-01-27T20:06:29.596Z,16.33
2023-01-27T20:08:59.914Z,18.50
2023-01-27T20:11:30.121Z,17.08
2023-01-27T20:13:58.007Z,20.85
2023-01-27T20:16:26.293Z,19.95
2023-01-27T20:18:54.335Z,29.77
2023-01-27T20:21:21.304Z,32.45
2023-01-27T20:23:48.650Z,25.92
2023-01-27T20:26:16.851Z,22.90
2023-01-27T20:28:44.724Z,22.83
2023-01-27T20:31:22.728Z,23.45
2023-01-27T20:33:50.368Z,23.75
2023-01-27T20:36:22.008Z,23.25
2023-01-27T20:38:49.065Z,21.98
2023-01-27T20:41:20.312Z,20.75
2023-01-27T20:43:47.190Z,24.42
2023-01-27T20:46:17.540Z,22.50
2023-01-27T20:48:44.989Z,27.33
2023-01-27T20:51:15.136Z,20.30
2023-01-27T20:53:47.190Z,20.23
2023-01-27T20:56:23.287Z,26.35
2023-01-27T20:58:51.332Z,27.13
2023-01-27T21:01:23.800Z,23.63
2023-01-27T21:03:51.074Z,24.08
2023-01-27T21:06:20.265Z,25.90
2023-01-27T21:08:50.431Z,25.55
2023-01-27T21:11:20.218Z,27.85
2023-01-27T21:13:48.348Z,24.17
2023-01-27T21:16:15.603Z,23.40
2023-01-27T21:18:44.193Z,25.27
2023-01-27T21:21:23.255Z,21.08
2023-01-27T21:23:50.750Z,23.35
2023-01-27T21:26:17.577Z,24.60
2023-01-27T21:28:44.519Z,26.98
2023-01-27T21:31:18.704Z,24.55
2023-01-27T21:33:46.309Z,23.48
2023-01-27T21:36:13.545Z,24.75
2023-01-27T21:38:41.107Z,26.13
2023-01-27T21:41:12.142Z,20.15
2023-01-27T21:43:57.542Z,21.42
2023-01-27T21:46:24.575Z,23.42
2023-01-27T21:48:51.400Z,24.67
2023-01-27T21:51:18.160Z,20.75
2023-01-27T21:53:44.966Z,22.02
2023-01-27T21:56:11.962Z,21.27
2023-01-27T21:58:39.352Z,27.38
2023-01-27T22:01:10.642Z,25.13
2023-01-27T22:03:38.539Z,28.58
2023-01-27T22:06:07.568Z,30.83
2023-01-27T22:08:35.027Z,34.90
2023-01-27T22:11:07.088Z,29.63
2023-01-27T22:13:34.403Z,35.70
2023-01-27T22:16:01.781Z,33.88
2023-01-27T22:18:29.160Z,29.80
2023-01-27T22:20:56.362Z,33.90
2023-01-27T22:23:24.700Z,25.83
2023-01-27T22:25:53.017Z,30.15
2023-01-27T22:28:23.268Z,25.98
2023-01-27T22:30:50.804Z,27.00
2023-01-27T22:33:17.700Z,30.25
2023-01-27T22:35:44.800Z,26.98
2023-01-27T22:38:11.616Z,24.15
2023-01-27T22:40:38.533Z,30.02
2023-01-27T22:43:09.425Z,27.95
2023-01-27T22:45:40.302Z,24.05
2023-01-27T22:48:09.027Z,27.48
2023-01-27T22:50:37.108Z,27.38
2023-01-27T22:53:05.549Z,26.60
2023-01-27T22:55:32.791Z,30.42
2023-01-27T22:58:00.167Z,32.17
2023-01-27T23:00:27.279Z,29.05
2023-01-27T23:02:54.666Z,28.73
2023-01-27T23:05:21.487Z,22.25
2023-01-27T23:07:48.346Z,24.60
2023-01-27T23:10:16.608Z,24.35
2023-01-27T23:12:43.409Z,26.25
2023-01-27T23:15:10.759Z,27.42
2023-01-27T23:17:37.736Z,27.65
2023-01-27T23:20:05.265Z,24.55
2023-01-27T23:22:32.817Z,25.75
2023-01-27T23:24:59.613Z,27.08
2023-01-27T23:27:28.706Z,25.73
2023-01-27T23:29:55.583Z,22.85
2023-01-27T23:32:22.835Z,28.88
2023-01-27T23:34:50.476Z,24.73
2023-01-27T23:37:17.686Z,29.25
2023-01-27T23:39:48.763Z,33.67
2023-01-27T23:42:17.264Z,30.52
2023-01-27T23:44:44.261Z,34.40
2023-01-27T23:47:13.607Z,38.85
2023-01-27T23:49:40.945Z,32.50
2023-01-27T23:52:08.221Z,32.60
2023-01-27T23:54:34.959Z,38.42
2023-01-27T23:57:01.761Z,28.38
2023-01-27T23:59:28.548Z,28.65
